sensor_id;sensor_type;location;lat;lon;timestamp;P1;durP1;ratioP1;P2;durP2;ratioP2
8622;SDS011;4349;47.552;8.904;2022-08-19T00:02:06;9.80;;;9.00;;
8622;SDS011;4349;47.552;8.904;2022-08-19T00:04:35;10.43;;;9.53;;
8622;SDS011;4349;47.552;8.904;2022-08-19T00:07:03;10.47;;;9.57;;
8622;SDS011;4349;47.552;8.904;2022-08-19T00:09:31;11.03;;;10.03;;
8622;SDS011;4349;47.552;8.904;2022-08-19T00:11:59;10.77;;;9.87;;
8622;SDS011;4349;47.552;8.904;2022-08-19T00:14:27;11.10;;;10.00;;
8622;SDS011;4349;47.552;8.904;2022-08-19T00:16:57;9.97;;;9.17;;
8622;SDS011;4349;47.552;8.904;2022-08-19T00:19:25;9.90;;;9.00;;
8622;SDS011;4349;47.552;8.904;2022-08-19T00:21:52;10.70;;;9.80;;
8622;SDS011;4349;47.552;8.904;2022-08-19T00:24:22;10.70;;;9.87;;
8622;SDS011;4349;47.552;8.904;2022-08-19T00:26:49;10.80;;;9.90;;
8622;SDS011;4349;47.552;8.904;2022-08-19T00:29:18;10.47;;;9.60;;
8622;SDS011;4349;47.552;8.904;2022-08-19T00:31:45;10.80;;;9.90;;
8622;SDS011;4349;47.552;8.904;2022-08-19T00:34:17;10.53;;;9.70;;
8622;SDS011;4349;47.552;8.904;2022-08-19T00:36:45;10.40;;;9.60;;
8622;SDS011;4349;47.552;8.904;2022-08-19T00:39:13;10.00;;;9.30;;
8622;SDS011;4349;47.552;8.904;2022-08-19T00:41:41;10.30;;;9.50;;
8622;SDS011;4349;47.552;8.904;2022-08-19T00:44:11;9.90;;;9.10;;
8622;SDS011;4349;47.552;8.904;2022-08-19T00:46:39;9.50;;;8.67;;
8622;SDS011;4349;47.552;8.904;2022-08-19T00:49:09;9.13;;;8.43;;
8622;SDS011;4349;47.552;8.904;2022-08-19T00:51:40;9.63;;;8.93;;
8622;SDS011;4349;47.552;8.904;2022-08-19T00:54:08;9.40;;;8.60;;
8622;SDS011;4349;47.552;8.904;2022-08-19T00:56:36;10.63;;;9.63;;
8622;SDS011;4349;47.552;8.904;2022-08-19T00:59:07;9.47;;;8.67;;
8622;SDS011;4349;47.552;8.904;2022-08-19T01:01:35;10.13;;;9.33;;
8622;SDS011;4349;47.552;8.904;2022-08-19T01:04:03;10.47;;;9.63;;
8622;SDS011;4349;47.552;8.904;2022-08-19T01:06:31;9.67;;;8.90;;
8622;SDS011;4349;47.552;8.904;2022-08-19T01:09:00;9.33;;;8.63;;
8622;SDS011;4349;47.552;8.904;2022-08-19T01:11:27;9.77;;;9.00;;
8622;SDS011;4349;47.552;8.904;2022-08-19T01:13:56;8.97;;;8.37;;
8622;SDS011;4349;47.552;8.904;2022-08-19T01:16:24;9.63;;;8.93;;
8622;SDS011;4349;47.552;8.904;2022-08-19T01:18:52;9.63;;;8.90;;
8622;SDS011;4349;47.552;8.904;2022-08-19T01:21:21;9.67;;;8.80;;
8622;SDS011;4349;47.552;8.904;2022-08-19T01:23:51;10.30;;;9.50;;
8622;SDS011;4349;47.552;8.904;2022-08-19T01:26:20;9.53;;;8.83;;
8622;SDS011;4349;47.552;8.904;2022-08-19T01:28:49;10.43;;;9.53;;
8622;SDS011;4349;47.552;8.904;2022-08-19T01:31:19;9.93;;;9.13;;
8622;SDS011;4349;47.552;8.904;2022-08-19T01:33:54;10.20;;;9.40;;
8622;SDS011;4349;47.552;8.904;2022-08-19T01:36:23;10.20;;;9.40;;
8622;SDS011;4349;47.552;8.904;2022-08-19T01:38:53;9.67;;;8.93;;
8622;SDS011;4349;47.552;8.904;2022-08-19T01:41:21;11.17;;;10.17;;
8622;SDS011;4349;47.552;8.904;2022-08-19T01:43:49;9.67;;;8.97;;
8622;SDS011;4349;47.552;8.904;2022-08-19T01:46:37;11.07;;;10.13;;
8622;SDS011;4349;47.552;8.904;2022-08-19T01:49:05;11.00;;;10.10;;
8622;SDS011;4349;47.552;8.904;2022-08-19T01:51:33;11.03;;;10.17;;
8622;SDS011;4349;47.552;8.904;2022-08-19T01:54:07;10.43;;;9.53;;
8622;SDS011;4349;47.552;8.904;2022-08-19T01:56:34;10.07;;;9.30;;
8622;SDS011;4349;47.552;8.904;2022-08-19T01:59:03;10.10;;;9.27;;
8622;SDS011;4349;47.552;8.904;2022-08-19T02:01:31;10.40;;;9.50;;
8622;SDS011;4349;47.552;8.904;2022-08-19T02:04:01;10.67;;;9.63;;
8622;SDS011;4349;47.552;8.904;2022-08-19T02:06:29;11.47;;;9.67;;
8622;SDS011;4349;47.552;8.904;2022-08-19T02:08:56;10.17;;;9.37;;
8622;SDS011;4349;47.552;8.904;2022-08-19T02:11:26;10.57;;;9.67;;
8622;SDS011;4349;47.552;8.904;2022-08-19T02:13:54;10.87;;;9.90;;
8622;SDS011;4349;47.552;8.904;2022-08-19T02:16:22;11.20;;;10.20;;
8622;SDS011;4349;47.552;8.904;2022-08-19T02:18:50;11.13;;;10.23;;
8622;SDS011;4349;47.552;8.904;2022-08-19T02:21:18;11.83;;;10.83;;
8622;SDS011;4349;47.552;8.904;2022-08-19T02:23:46;10.73;;;9.77;;
8622;SDS011;4349;47.552;8.904;2022-08-19T02:26:14;10.23;;;9.33;;
8622;SDS011;4349;47.552;8.904;2022-08-19T02:28:43;10.43;;;9.63;;
8622;SDS011;4349;47.552;8.904;2022-08-19T02:31:11;10.53;;;9.63;;
8622;SDS011;4349;47.552;8.904;2022-08-19T02:33:40;11.10;;;10.20;;
8622;SDS011;4349;47.552;8.904;2022-08-19T02:36:08;10.30;;;9.50;;
8622;SDS011;4349;47.552;8.904;2022-08-19T02:38:37;10.93;;;9.90;;
8622;SDS011;4349;47.552;8.904;2022-08-19T02:41:05;10.87;;;10.00;;
8622;SDS011;4349;47.552;8.904;2022-08-19T02:43:36;11.73;;;10.63;;
8622;SDS011;4349;47.552;8.904;2022-08-19T02:46:15;11.83;;;10.87;;
8622;SDS011;4349;47.552;8.904;2022-08-19T02:48:47;11.83;;;10.83;;
8622;SDS011;4349;47.552;8.904;2022-08-19T02:51:18;11.90;;;10.90;;
8622;SDS011;4349;47.552;8.904;2022-08-19T02:53:46;11.20;;;10.20;;
8622;SDS011;4349;47.552;8.904;2022-08-19T02:56:14;10.57;;;9.67;;
8622;SDS011;4349;47.552;8.904;2022-08-19T02:58:41;11.23;;;10.20;;
8622;SDS011;4349;47.552;8.904;2022-08-19T03:01:09;11.30;;;10.33;;
8622;SDS011;4349;47.552;8.904;2022-08-19T03:03:38;11.73;;;10.63;;
8622;SDS011;4349;47.552;8.904;2022-08-19T03:06:08;10.63;;;9.67;;
8622;SDS011;4349;47.552;8.904;2022-08-19T03:08:36;11.07;;;10.17;;
8622;SDS011;4349;47.552;8.904;2022-08-19T03:11:03;11.33;;;10.43;;
8622;SDS011;4349;47.552;8.904;2022-08-19T03:13:31;11.50;;;10.60;;
8622;SDS011;4349;47.552;8.904;2022-08-19T03:15:59;11.20;;;10.20;;
8622;SDS011;4349;47.552;8.904;2022-08-19T03:18:26;11.37;;;10.37;;
8622;SDS011;4349;47.552;8.904;2022-08-19T03:20:55;11.27;;;10.27;;
8622;SDS011;4349;47.552;8.904;2022-08-19T03:23:23;11.73;;;10.63;;
8622;SDS011;4349;47.552;8.904;2022-08-19T03:25:51;10.67;;;9.87;;
8622;SDS011;4349;47.552;8.904;2022-08-19T03:28:39;11.80;;;10.70;;
8622;SDS011;4349;47.552;8.904;2022-08-19T03:31:13;10.90;;;10.00;;
8622;SDS011;4349;47.552;8.904;2022-08-19T03:34:00;10.73;;;9.83;;
8622;SDS011;4349;47.552;8.904;2022-08-19T03:36:30;9.77;;;8.97;;
8622;SDS011;4349;47.552;8.904;2022-08-19T03:38:58;9.90;;;9.10;;
8622;SDS011;4349;47.552;8.904;2022-08-19T03:41:27;9.57;;;8.67;;
8622;SDS011;4349;47.552;8.904;2022-08-19T03:44:11;9.97;;;9.20;;
8622;SDS011;4349;47.552;8.904;2022-08-19T03:46:44;9.97;;;9.03;;
8622;SDS011;4349;47.552;8.904;2022-08-19T03:49:12;9.53;;;8.83;;
8622;SDS011;4349;47.552;8.904;2022-08-19T03:51:42;10.50;;;9.70;;
8622;SDS011;4349;47.552;8.904;2022-08-19T03:54:10;8.83;;;8.23;;
8622;SDS011;4349;47.552;8.904;2022-08-19T03:56:39;9.60;;;8.90;;
8622;SDS011;4349;47.552;8.904;2022-08-19T03:59:08;9.67;;;8.87;;
8622;SDS011;4349;47.552;8.904;2022-08-19T04:01:36;9.57;;;8.87;;
8622;SDS011;4349;47.552;8.904;2022-08-19T04:04:04;8.90;;;8.20;;
8622;SDS011;4349;47.552;8.904;2022-08-19T04:06:35;10.33;;;9.43;;
8622;SDS011;4349;47.552;8.904;2022-08-19T04:09:07;9.90;;;8.93;;
8622;SDS011;4349;47.552;8.904;2022-08-19T04:11:36;10.43;;;9.50;;
8622;SDS011;4349;47.552;8.904;2022-08-19T04:14:10;9.90;;;9.10;;
8622;SDS011;4349;47.552;8.904;2022-08-19T04:16:38;11.00;;;10.00;;
8622;SDS011;4349;47.552;8.904;2022-08-19T04:19:06;10.53;;;9.63;;
8622;SDS011;4349;47.552;8.904;2022-08-19T04:21:34;11.63;;;10.53;;
8622;SDS011;4349;47.552;8.904;2022-08-19T04:24:02;10.50;;;9.60;;
8622;SDS011;4349;47.552;8.904;2022-08-19T04:26:32;12.60;;;11.50;;
8622;SDS011;4349;47.552;8.904;2022-08-19T04:29:00;12.00;;;10.90;;
8622;SDS011;4349;47.552;8.904;2022-08-19T04:31:30;14.07;;;12.77;;
8622;SDS011;4349;47.552;8.904;2022-08-19T04:33:59;12.83;;;11.67;;
8622;SDS011;4349;47.552;8.904;2022-08-19T04:36:29;14.40;;;13.00;;
8622;SDS011;4349;47.552;8.904;2022-08-19T04:38:58;14.63;;;13.23;;
8622;SDS011;4349;47.552;8.904;2022-08-19T04:41:26;15.03;;;13.63;;
8622;SDS011;4349;47.552;8.904;2022-08-19T04:44:12;14.13;;;12.80;;
8622;SDS011;4349;47.552;8.904;2022-08-19T04:46:40;15.00;;;13.50;;
8622;SDS011;4349;47.552;8.904;2022-08-19T04:49:17;15.50;;;13.90;;
8622;SDS011;4349;47.552;8.904;2022-08-19T04:51:45;15.30;;;13.60;;
8622;SDS011;4349;47.552;8.904;2022-08-19T04:54:14;15.60;;;14.10;;
8622;SDS011;4349;47.552;8.904;2022-08-19T04:57:02;15.17;;;13.67;;
8622;SDS011;4349;47.552;8.904;2022-08-19T04:59:33;15.70;;;14.13;;
8622;SDS011;4349;47.552;8.904;2022-08-19T05:02:01;15.13;;;13.63;;
8622;SDS011;4349;47.552;8.904;2022-08-19T05:04:29;15.90;;;14.20;;
8622;SDS011;4349;47.552;8.904;2022-08-19T05:06:58;15.80;;;13.93;;
8622;SDS011;4349;47.552;8.904;2022-08-19T05:09:27;14.47;;;13.07;;
8622;SDS011;4349;47.552;8.904;2022-08-19T05:12:15;16.67;;;14.97;;
8622;SDS011;4349;47.552;8.904;2022-08-19T05:14:44;16.97;;;15.27;;
8622;SDS011;4349;47.552;8.904;2022-08-19T05:17:13;17.53;;;15.83;;
8622;SDS011;4349;47.552;8.904;2022-08-19T05:20:01;18.77;;;15.80;;
8622;SDS011;4349;47.552;8.904;2022-08-19T05:22:47;17.67;;;15.80;;
8622;SDS011;4349;47.552;8.904;2022-08-19T05:25:15;17.77;;;15.90;;
8622;SDS011;4349;47.552;8.904;2022-08-19T05:27:44;20.60;;;17.60;;
8622;SDS011;4349;47.552;8.904;2022-08-19T05:30:13;19.83;;;16.40;;
8622;SDS011;4349;47.552;8.904;2022-08-19T05:32:41;19.47;;;17.40;;
8622;SDS011;4349;47.552;8.904;2022-08-19T05:35:09;19.23;;;17.20;;
8622;SDS011;4349;47.552;8.904;2022-08-19T05:37:37;18.37;;;16.47;;
8622;SDS011;4349;47.552;8.904;2022-08-19T05:40:06;18.77;;;16.80;;
8622;SDS011;4349;47.552;8.904;2022-08-19T05:42:34;18.40;;;16.40;;
8622;SDS011;4349;47.552;8.904;2022-08-19T05:45:02;18.87;;;16.90;;
8622;SDS011;4349;47.552;8.904;2022-08-19T05:47:31;18.23;;;16.37;;
8622;SDS011;4349;47.552;8.904;2022-08-19T05:49:59;17.90;;;16.10;;
8622;SDS011;4349;47.552;8.904;2022-08-19T05:52:30;17.70;;;15.90;;
8622;SDS011;4349;47.552;8.904;2022-08-19T05:54:58;17.83;;;16.03;;
8622;SDS011;4349;47.552;8.904;2022-08-19T05:57:26;17.70;;;15.90;;
8622;SDS011;4349;47.552;8.904;2022-08-19T05:59:55;17.10;;;15.40;;
8622;SDS011;4349;47.552;8.904;2022-08-19T06:02:24;17.83;;;16.03;;
8622;SDS011;4349;47.552;8.904;2022-08-19T06:04:53;19.00;;;17.00;;
8622;SDS011;4349;47.552;8.904;2022-08-19T06:07:21;18.53;;;16.67;;
8622;SDS011;4349;47.552;8.904;2022-08-19T06:09:49;18.60;;;16.63;;
8622;SDS011;4349;47.552;8.904;2022-08-19T06:12:26;18.80;;;16.90;;
8622;SDS011;4349;47.552;8.904;2022-08-19T06:14:56;18.17;;;16.37;;
8622;SDS011;4349;47.552;8.904;2022-08-19T06:17:27;18.17;;;16.13;;
8622;SDS011;4349;47.552;8.904;2022-08-19T06:19:58;17.60;;;15.80;;
8622;SDS011;4349;47.552;8.904;2022-08-19T06:22:26;18.80;;;16.80;;
8622;SDS011;4349;47.552;8.904;2022-08-19T06:24:54;18.57;;;16.67;;
8622;SDS011;4349;47.552;8.904;2022-08-19T06:27:22;17.80;;;16.00;;
8622;SDS011;4349;47.552;8.904;2022-08-19T06:29:49;17.83;;;16.03;;
8622;SDS011;4349;47.552;8.904;2022-08-19T06:32:17;17.67;;;15.73;;
8622;SDS011;4349;47.552;8.904;2022-08-19T06:34:45;16.73;;;15.13;;
8622;SDS011;4349;47.552;8.904;2022-08-19T06:37:15;16.13;;;14.50;;
8622;SDS011;4349;47.552;8.904;2022-08-19T06:39:43;16.97;;;15.03;;
8622;SDS011;4349;47.552;8.904;2022-08-19T06:42:11;16.10;;;14.50;;
8622;SDS011;4349;47.552;8.904;2022-08-19T06:44:44;16.40;;;14.83;;
8622;SDS011;4349;47.552;8.904;2022-08-19T06:47:15;16.27;;;14.67;;
8622;SDS011;4349;47.552;8.904;2022-08-19T06:49:53;16.80;;;14.27;;
8622;SDS011;4349;47.552;8.904;2022-08-19T06:52:29;16.23;;;14.63;;
8622;SDS011;4349;47.552;8.904;2022-08-19T06:54:59;16.03;;;14.43;;
8622;SDS011;4349;47.552;8.904;2022-08-19T06:57:31;15.67;;;14.10;;
8622;SDS011;4349;47.552;8.904;2022-08-19T06:59:58;15.80;;;14.20;;
8622;SDS011;4349;47.552;8.904;2022-08-19T07:02:27;16.30;;;14.63;;
8622;SDS011;4349;47.552;8.904;2022-08-19T07:04:54;15.67;;;14.10;;
8622;SDS011;4349;47.552;8.904;2022-08-19T07:07:24;17.67;;;15.07;;
8622;SDS011;4349;47.552;8.904;2022-08-19T07:09:53;17.10;;;15.40;;
8622;SDS011;4349;47.552;8.904;2022-08-19T07:12:26;16.73;;;14.93;;
8622;SDS011;4349;47.552;8.904;2022-08-19T07:14:56;16.60;;;14.80;;
8622;SDS011;4349;47.552;8.904;2022-08-19T07:17:24;16.67;;;15.07;;
8622;SDS011;4349;47.552;8.904;2022-08-19T07:19:52;15.80;;;14.20;;
8622;SDS011;4349;47.552;8.904;2022-08-19T07:22:21;16.47;;;14.87;;
8622;SDS011;4349;47.552;8.904;2022-08-19T07:24:50;16.77;;;15.10;;
8622;SDS011;4349;47.552;8.904;2022-08-19T07:27:19;16.07;;;14.37;;
8622;SDS011;4349;47.552;8.904;2022-08-19T07:29:50;16.10;;;14.60;;
8622;SDS011;4349;47.552;8.904;2022-08-19T07:32:22;16.20;;;14.60;;
8622;SDS011;4349;47.552;8.904;2022-08-19T07:34:52;16.60;;;14.90;;
8622;SDS011;4349;47.552;8.904;2022-08-19T07:37:19;17.33;;;15.53;;
8622;SDS011;4349;47.552;8.904;2022-08-19T07:39:47;15.67;;;14.17;;
8622;SDS011;4349;47.552;8.904;2022-08-19T07:42:15;15.17;;;13.77;;
8622;SDS011;4349;47.552;8.904;2022-08-19T07:44:48;15.97;;;14.40;;
8622;SDS011;4349;47.552;8.904;2022-08-19T07:47:16;16.63;;;14.93;;
8622;SDS011;4349;47.552;8.904;2022-08-19T07:50:05;15.73;;;14.20;;
8622;SDS011;4349;47.552;8.904;2022-08-19T07:52:33;16.20;;;14.60;;
8622;SDS011;4349;47.552;8.904;2022-08-19T07:55:01;16.27;;;14.60;;
8622;SDS011;4349;47.552;8.904;2022-08-19T07:57:30;17.50;;;15.70;;
8622;SDS011;4349;47.552;8.904;2022-08-19T07:59:59;16.03;;;14.33;;
8622;SDS011;4349;47.552;8.904;2022-08-19T08:02:26;16.67;;;15.03;;
8622;SDS011;4349;47.552;8.904;2022-08-19T08:04:54;16.37;;;14.77;;
8622;SDS011;4349;47.552;8.904;2022-08-19T08:07:39;17.27;;;15.57;;
8622;SDS011;4349;47.552;8.904;2022-08-19T08:10:24;17.13;;;15.43;;
8622;SDS011;4349;47.552;8.904;2022-08-19T08:12:51;18.00;;;16.20;;
8622;SDS011;4349;47.552;8.904;2022-08-19T08:15:38;16.73;;;15.13;;
8622;SDS011;4349;47.552;8.904;2022-08-19T08:18:09;18.80;;;16.80;;
8622;SDS011;4349;47.552;8.904;2022-08-19T08:20:36;17.50;;;15.70;;
8622;SDS011;4349;47.552;8.904;2022-08-19T08:23:04;17.43;;;15.63;;
8622;SDS011;4349;47.552;8.904;2022-08-19T08:25:51;17.37;;;15.43;;
8622;SDS011;4349;47.552;8.904;2022-08-19T08:28:20;18.77;;;16.77;;
8622;SDS011;4349;47.552;8.904;2022-08-19T08:30:49;17.83;;;16.03;;
8622;SDS011;4349;47.552;8.904;2022-08-19T08:33:18;17.90;;;16.07;;
8622;SDS011;4349;47.552;8.904;2022-08-19T08:35:59;17.00;;;15.30;;
8622;SDS011;4349;47.552;8.904;2022-08-19T08:38:29;18.77;;;16.77;;
8622;SDS011;4349;47.552;8.904;2022-08-19T08:41:05;18.53;;;16.63;;
8622;SDS011;4349;47.552;8.904;2022-08-19T08:43:37;16.87;;;15.17;;
8622;SDS011;4349;47.552;8.904;2022-08-19T08:46:08;18.00;;;16.20;;
8622;SDS011;4349;47.552;8.904;2022-08-19T08:48:38;17.07;;;15.37;;
8622;SDS011;4349;47.552;8.904;2022-08-19T08:51:12;17.40;;;15.60;;
8622;SDS011;4349;47.552;8.904;2022-08-19T08:53:45;17.17;;;15.40;;
8622;SDS011;4349;47.552;8.904;2022-08-19T08:56:13;17.23;;;15.50;;
8622;SDS011;4349;47.552;8.904;2022-08-19T08:58:46;16.57;;;14.87;;
8622;SDS011;4349;47.552;8.904;2022-08-19T09:01:21;15.93;;;14.40;;
8622;SDS011;4349;47.552;8.904;2022-08-19T09:03:54;15.00;;;13.60;;
8622;SDS011;4349;47.552;8.904;2022-08-19T09:06:29;16.17;;;14.67;;
8622;SDS011;4349;47.552;8.904;2022-08-19T09:09:01;16.93;;;15.03;;
8622;SDS011;4349;47.552;8.904;2022-08-19T09:11:42;20.17;;;15.43;;
8622;SDS011;4349;47.552;8.904;2022-08-19T09:14:14;16.50;;;14.73;;
8622;SDS011;4349;47.552;8.904;2022-08-19T09:17:04;17.50;;;15.40;;
8622;SDS011;4349;47.552;8.904;2022-08-19T09:19:34;18.03;;;15.70;;
8622;SDS011;4349;47.552;8.904;2022-08-19T09:22:01;16.40;;;14.80;;
8622;SDS011;4349;47.552;8.904;2022-08-19T09:24:29;16.43;;;14.80;;
8622;SDS011;4349;47.552;8.904;2022-08-19T09:26:57;17.27;;;15.47;;
8622;SDS011;4349;47.552;8.904;2022-08-19T09:29:24;16.80;;;15.10;;
8622;SDS011;4349;47.552;8.904;2022-08-19T09:31:52;17.87;;;15.97;;
8622;SDS011;4349;47.552;8.904;2022-08-19T09:34:21;17.57;;;15.77;;
8622;SDS011;4349;47.552;8.904;2022-08-19T09:36:49;18.63;;;16.00;;
8622;SDS011;4349;47.552;8.904;2022-08-19T09:39:20;18.77;;;15.40;;
8622;SDS011;4349;47.552;8.904;2022-08-19T09:41:48;17.70;;;15.90;;
8622;SDS011;4349;47.552;8.904;2022-08-19T09:44:16;17.40;;;15.67;;
8622;SDS011;4349;47.552;8.904;2022-08-19T09:46:45;17.23;;;14.90;;
8622;SDS011;4349;47.552;8.904;2022-08-19T09:49:14;17.00;;;15.20;;
8622;SDS011;4349;47.552;8.904;2022-08-19T09:51:45;16.53;;;14.73;;
8622;SDS011;4349;47.552;8.904;2022-08-19T09:54:17;15.47;;;13.87;;
8622;SDS011;4349;47.552;8.904;2022-08-19T09:56:50;15.77;;;14.27;;
8622;SDS011;4349;47.552;8.904;2022-08-19T09:59:17;16.37;;;14.63;;
8622;SDS011;4349;47.552;8.904;2022-08-19T10:01:45;16.20;;;14.60;;
8622;SDS011;4349;47.552;8.904;2022-08-19T10:04:13;17.87;;;16.03;;
8622;SDS011;4349;47.552;8.904;2022-08-19T10:06:47;18.03;;;15.97;;
8622;SDS011;4349;47.552;8.904;2022-08-19T10:09:19;18.57;;;16.50;;
8622;SDS011;4349;47.552;8.904;2022-08-19T10:11:59;18.70;;;16.70;;
8622;SDS011;4349;47.552;8.904;2022-08-19T10:14:28;18.37;;;16.50;;
8622;SDS011;4349;47.552;8.904;2022-08-19T10:16:55;18.77;;;16.77;;
8622;SDS011;4349;47.552;8.904;2022-08-19T10:19:24;19.07;;;17.07;;
8622;SDS011;4349;47.552;8.904;2022-08-19T10:21:53;20.70;;;17.80;;
8622;SDS011;4349;47.552;8.904;2022-08-19T10:24:26;20.83;;;18.57;;
8622;SDS011;4349;47.552;8.904;2022-08-19T10:26:54;20.67;;;18.40;;
8622;SDS011;4349;47.552;8.904;2022-08-19T10:29:24;19.80;;;17.70;;
8622;SDS011;4349;47.552;8.904;2022-08-19T10:31:58;21.27;;;18.97;;
8622;SDS011;4349;47.552;8.904;2022-08-19T10:34:29;21.17;;;18.03;;
8622;SDS011;4349;47.552;8.904;2022-08-19T10:36:58;25.07;;;21.17;;
8622;SDS011;4349;47.552;8.904;2022-08-19T10:39:27;25.20;;;21.20;;
8622;SDS011;4349;47.552;8.904;2022-08-19T10:41:56;23.73;;;20.67;;
8622;SDS011;4349;47.552;8.904;2022-08-19T10:44:24;23.70;;;20.00;;
8622;SDS011;4349;47.552;8.904;2022-08-19T10:46:58;24.17;;;19.90;;
8622;SDS011;4349;47.552;8.904;2022-08-19T10:49:26;22.10;;;19.80;;
8622;SDS011;4349;47.552;8.904;2022-08-19T10:51:53;24.87;;;20.90;;
8622;SDS011;4349;47.552;8.904;2022-08-19T10:54:47;25.07;;;21.43;;
8622;SDS011;4349;47.552;8.904;2022-08-19T10:57:44;23.83;;;21.13;;
8622;SDS011;4349;47.552;8.904;2022-08-19T11:00:28;24.37;;;21.27;;
8622;SDS011;4349;47.552;8.904;2022-08-19T11:02:57;26.73;;;22.03;;
8622;SDS011;4349;47.552;8.904;2022-08-19T11:05:24;28.20;;;22.87;;
8622;SDS011;4349;47.552;8.904;2022-08-19T11:07:52;26.83;;;23.17;;
8622;SDS011;4349;47.552;8.904;2022-08-19T11:10:21;28.53;;;22.67;;
8622;SDS011;4349;47.552;8.904;2022-08-19T11:12:49;29.40;;;23.13;;
8622;SDS011;4349;47.552;8.904;2022-08-19T11:15:20;30.70;;;23.83;;
8622;SDS011;4349;47.552;8.904;2022-08-19T11:17:48;27.70;;;23.53;;
8622;SDS011;4349;47.552;8.904;2022-08-19T11:20:20;31.60;;;24.40;;
8622;SDS011;4349;47.552;8.904;2022-08-19T11:22:50;30.37;;;24.93;;
8622;SDS011;4349;47.552;8.904;2022-08-19T11:25:18;30.47;;;24.50;;
8622;SDS011;4349;47.552;8.904;2022-08-19T11:27:47;29.57;;;24.17;;
8622;SDS011;4349;47.552;8.904;2022-08-19T11:30:17;33.17;;;25.90;;
8622;SDS011;4349;47.552;8.904;2022-08-19T11:32:44;32.33;;;25.43;;
8622;SDS011;4349;47.552;8.904;2022-08-19T11:35:15;33.50;;;26.07;;
8622;SDS011;4349;47.552;8.904;2022-08-19T11:37:45;34.13;;;27.50;;
8622;SDS011;4349;47.552;8.904;2022-08-19T11:40:13;36.17;;;26.03;;
8622;SDS011;4349;47.552;8.904;2022-08-19T11:42:41;30.77;;;25.30;;
8622;SDS011;4349;47.552;8.904;2022-08-19T11:45:25;37.27;;;26.50;;
8622;SDS011;4349;47.552;8.904;2022-08-19T11:47:53;33.53;;;25.93;;
8622;SDS011;4349;47.552;8.904;2022-08-19T11:50:21;35.53;;;26.10;;
8622;SDS011;4349;47.552;8.904;2022-08-19T11:52:49;31.87;;;24.60;;
8622;SDS011;4349;47.552;8.904;2022-08-19T11:55:17;33.03;;;25.13;;
8622;SDS011;4349;47.552;8.904;2022-08-19T11:57:45;32.80;;;25.30;;
8622;SDS011;4349;47.552;8.904;2022-08-19T12:00:13;31.30;;;24.43;;
8622;SDS011;4349;47.552;8.904;2022-08-19T12:02:42;31.57;;;25.20;;
8622;SDS011;4349;47.552;8.904;2022-08-19T12:05:10;28.53;;;24.10;;
8622;SDS011;4349;47.552;8.904;2022-08-19T12:07:38;31.43;;;25.60;;
8622;SDS011;4349;47.552;8.904;2022-08-19T12:10:07;32.97;;;25.30;;
8622;SDS011;4349;47.552;8.904;2022-08-19T12:12:36;34.47;;;26.50;;
8622;SDS011;4349;47.552;8.904;2022-08-19T12:15:09;32.47;;;25.23;;
8622;SDS011;4349;47.552;8.904;2022-08-19T12:17:38;29.40;;;23.73;;
8622;SDS011;4349;47.552;8.904;2022-08-19T12:20:08;31.07;;;25.20;;
8622;SDS011;4349;47.552;8.904;2022-08-19T12:22:36;32.47;;;25.17;;
8622;SDS011;4349;47.552;8.904;2022-08-19T12:25:05;26.27;;;23.40;;
8622;SDS011;4349;47.552;8.904;2022-08-19T12:27:33;29.50;;;24.60;;
8622;SDS011;4349;47.552;8.904;2022-08-19T12:30:07;32.77;;;25.20;;
8622;SDS011;4349;47.552;8.904;2022-08-19T12:32:35;31.10;;;24.47;;
8622;SDS011;4349;47.552;8.904;2022-08-19T12:35:03;30.77;;;24.83;;
8622;SDS011;4349;47.552;8.904;2022-08-19T12:37:33;28.80;;;24.53;;
8622;SDS011;4349;47.552;8.904;2022-08-19T12:40:01;30.50;;;25.70;;
8622;SDS011;4349;47.552;8.904;2022-08-19T12:42:29;32.77;;;26.17;;
8622;SDS011;4349;47.552;8.904;2022-08-19T12:44:56;31.97;;;26.10;;
8622;SDS011;4349;47.552;8.904;2022-08-19T12:47:24;33.63;;;27.10;;
8622;SDS011;4349;47.552;8.904;2022-08-19T12:49:52;33.17;;;27.17;;
8622;SDS011;4349;47.552;8.904;2022-08-19T12:52:22;33.07;;;26.47;;
8622;SDS011;4349;47.552;8.904;2022-08-19T12:54:51;33.50;;;26.47;;
8622;SDS011;4349;47.552;8.904;2022-08-19T12:57:20;31.23;;;25.53;;
8622;SDS011;4349;47.552;8.904;2022-08-19T12:59:55;30.23;;;26.40;;
8622;SDS011;4349;47.552;8.904;2022-08-19T13:02:22;31.60;;;26.87;;
8622;SDS011;4349;47.552;8.904;2022-08-19T13:04:50;30.80;;;25.90;;
8622;SDS011;4349;47.552;8.904;2022-08-19T13:07:17;32.07;;;26.73;;
8622;SDS011;4349;47.552;8.904;2022-08-19T13:09:45;33.50;;;27.83;;
8622;SDS011;4349;47.552;8.904;2022-08-19T13:12:14;33.90;;;28.27;;
8622;SDS011;4349;47.552;8.904;2022-08-19T13:14:42;29.90;;;26.47;;
8622;SDS011;4349;47.552;8.904;2022-08-19T13:17:12;31.83;;;26.30;;
8622;SDS011;4349;47.552;8.904;2022-08-19T13:19:41;32.33;;;27.13;;
8622;SDS011;4349;47.552;8.904;2022-08-19T13:22:09;31.40;;;26.87;;
8622;SDS011;4349;47.552;8.904;2022-08-19T13:24:40;34.47;;;28.60;;
8622;SDS011;4349;47.552;8.904;2022-08-19T13:27:13;34.50;;;28.67;;
8622;SDS011;4349;47.552;8.904;2022-08-19T13:29:41;33.13;;;27.80;;
8622;SDS011;4349;47.552;8.904;2022-08-19T13:32:26;32.57;;;27.00;;
8622;SDS011;4349;47.552;8.904;2022-08-19T13:35:15;32.77;;;26.43;;
8622;SDS011;4349;47.552;8.904;2022-08-19T13:37:43;30.70;;;26.70;;
8622;SDS011;4349;47.552;8.904;2022-08-19T13:40:12;33.40;;;27.73;;
8622;SDS011;4349;47.552;8.904;2022-08-19T13:42:43;30.90;;;27.07;;
8622;SDS011;4349;47.552;8.904;2022-08-19T13:45:14;35.87;;;29.00;;
8622;SDS011;4349;47.552;8.904;2022-08-19T13:47:44;33.47;;;28.57;;
8622;SDS011;4349;47.552;8.904;2022-08-19T13:50:13;32.13;;;26.43;;
8622;SDS011;4349;47.552;8.904;2022-08-19T13:52:42;32.23;;;28.03;;
8622;SDS011;4349;47.552;8.904;2022-08-19T13:55:10;34.23;;;28.53;;
8622;SDS011;4349;47.552;8.904;2022-08-19T13:57:38;35.87;;;28.83;;
8622;SDS011;4349;47.552;8.904;2022-08-19T14:00:08;35.60;;;28.40;;
8622;SDS011;4349;47.552;8.904;2022-08-19T14:02:37;33.97;;;28.70;;
8622;SDS011;4349;47.552;8.904;2022-08-19T14:05:05;33.50;;;28.63;;
8622;SDS011;4349;47.552;8.904;2022-08-19T14:07:33;36.27;;;28.30;;
8622;SDS011;4349;47.552;8.904;2022-08-19T14:10:00;35.73;;;28.80;;
8622;SDS011;4349;47.552;8.904;2022-08-19T14:12:28;37.40;;;30.03;;
8622;SDS011;4349;47.552;8.904;2022-08-19T14:14:58;32.73;;;27.47;;
8622;SDS011;4349;47.552;8.904;2022-08-19T14:17:27;33.50;;;28.20;;
8622;SDS011;4349;47.552;8.904;2022-08-19T14:19:56;32.50;;;28.23;;
8622;SDS011;4349;47.552;8.904;2022-08-19T14:22:28;33.97;;;28.23;;
8622;SDS011;4349;47.552;8.904;2022-08-19T14:24:57;34.53;;;27.97;;
8622;SDS011;4349;47.552;8.904;2022-08-19T14:27:24;34.00;;;28.40;;
8622;SDS011;4349;47.552;8.904;2022-08-19T14:29:52;36.87;;;29.00;;
8622;SDS011;4349;47.552;8.904;2022-08-19T14:32:19;34.47;;;27.97;;
8622;SDS011;4349;47.552;8.904;2022-08-19T14:34:49;34.17;;;27.97;;
8622;SDS011;4349;47.552;8.904;2022-08-19T14:37:17;34.50;;;28.93;;
8622;SDS011;4349;47.552;8.904;2022-08-19T14:39:46;32.90;;;28.10;;
8622;SDS011;4349;47.552;8.904;2022-08-19T14:42:13;36.13;;;28.83;;
8622;SDS011;4349;47.552;8.904;2022-08-19T14:44:41;35.70;;;29.17;;
8622;SDS011;4349;47.552;8.904;2022-08-19T14:47:09;35.33;;;28.87;;
8622;SDS011;4349;47.552;8.904;2022-08-19T14:49:37;32.13;;;26.47;;
8622;SDS011;4349;47.552;8.904;2022-08-19T14:52:11;32.57;;;27.47;;
8622;SDS011;4349;47.552;8.904;2022-08-19T14:54:39;33.20;;;27.10;;
8622;SDS011;4349;47.552;8.904;2022-08-19T14:57:06;36.17;;;28.47;;
8622;SDS011;4349;47.552;8.904;2022-08-19T14:59:34;33.90;;;27.40;;
8622;SDS011;4349;47.552;8.904;2022-08-19T15:02:02;34.97;;;28.83;;
8622;SDS011;4349;47.552;8.904;2022-08-19T15:04:49;32.87;;;28.10;;
8622;SDS011;4349;47.552;8.904;2022-08-19T15:07:25;31.83;;;26.97;;
8622;SDS011;4349;47.552;8.904;2022-08-19T15:09:55;34.53;;;26.77;;
8622;SDS011;4349;47.552;8.904;2022-08-19T15:12:22;35.07;;;26.20;;